createdAt,value
2022-08-11T00:01:14.982Z,54.60
2022-08-11T00:05:22.917Z,55.05
2022-08-11T00:09:39.478Z,55.13
2022-08-11T00:13:45.459Z,55.60
2022-08-11T00:17:48.159Z,55.76
2022-08-11T00:22:03.887Z,55.80
2022-08-11T00:26:08.947Z,56.14
2022-08-11T00:30:13.098Z,56.75
2022-08-11T00:34:18.495Z,57.15
2022-08-11T00:38:26.055Z,57.75
2022-08-11T00:43:01.852Z,57.36
2022-08-11T00:47:31.893Z,57.52
2022-08-11T00:52:04.312Z,57.50
2022-08-11T00:56:10.997Z,57.64
2022-08-11T01:00:19.550Z,57.99
2022-08-11T01:04:46.524Z,58.16
2022-08-11T01:09:22.328Z,57.92
2022-08-11T01:13:52.934Z,58.10
2022-08-11T01:18:28.704Z,58.66
2022-08-11T01:23:02.433Z,58.34
2022-08-11T01:27:40.025Z,58.83
2022-08-11T01:32:11.006Z,59.50
2022-08-11T01:36:37.953Z,60.06
2022-08-11T01:40:55.634Z,59.86
2022-08-11T01:45:07.870Z,59.98
2022-08-11T01:50:06.780Z,60.61
2022-08-11T01:54:05.540Z,61.39
2022-08-11T01:58:34.327Z,61.53
2022-08-11T02:03:08.612Z,61.44
2022-08-11T02:07:19.154Z,61.92
2022-08-11T02:11:31.021Z,61.75
2022-08-11T02:15:47.024Z,61.96
2022-08-11T02:20:24.962Z,61.43
2022-08-11T02:24:34.620Z,61.62
2022-08-11T02:29:15.589Z,62.14
2022-08-11T02:33:24.678Z,62.63
2022-08-11T02:37:32.912Z,62.30
2022-08-11T02:42:32.483Z,62.47
2022-08-11T02:46:56.939Z,62.45
2022-08-11T02:51:21.341Z,62.51
2022-08-11T02:55:56.147Z,62.12
2022-08-11T03:00:07.437Z,62.32
2022-08-11T03:04:21.192Z,62.62
2022-08-11T03:08:53.207Z,63.82
2022-08-11T03:13:29.774Z,64.74
2022-08-11T03:17:42.956Z,64.81
2022-08-11T03:22:02.525Z,64.78
2022-08-11T03:26:19.484Z,64.54
2022-08-11T03:30:32.535Z,64.92
2022-08-11T03:34:39.786Z,65.38
2022-08-11T03:39:08.017Z,64.88
2022-08-11T03:43:31.806Z,64.63
2022-08-11T03:47:54.995Z,64.13
2022-08-11T03:52:13.148Z,64.74
2022-08-11T03:56:33.945Z,64.91
2022-08-11T04:01:07.771Z,65.24
2022-08-11T04:05:31.766Z,65.76
2022-08-11T04:09:55.448Z,65.43
2022-08-11T04:14:55.924Z,66.27
2022-08-11T04:19:28.734Z,66.69
2022-08-11T04:24:13.219Z,66.95
2022-08-11T04:28:43.042Z,66.99
2022-08-11T04:33:11.375Z,66.64
2022-08-11T04:37:43.388Z,66.74
2022-08-11T04:42:41.888Z,66.28
2022-08-11T04:47:02.539Z,66.24
2022-08-11T04:51:51.119Z,64.45
2022-08-11T04:56:17.715Z,61.66
2022-08-11T05:00:38.610Z,56.61
2022-08-11T05:05:56.804Z,53.19
2022-08-11T05:10:17.261Z,53.96
2022-08-11T05:14:53.457Z,52.92
2022-08-11T05:19:16.436Z,50.71
2022-08-11T05:23:42.853Z,48.68
2022-08-11T05:28:14.022Z,49.68
2022-08-11T05:32:36.533Z,51.57
2022-08-11T05:37:25.116Z,53.19
2022-08-11T05:41:49.728Z,50.79
2022-08-11T05:46:19.789Z,44.28
2022-08-11T05:50:42.620Z,39.61
2022-08-11T05:55:09.951Z,35.71
2022-08-11T05:59:18.550Z,32.67
2022-08-11T06:03:27.952Z,30.52
2022-08-11T06:07:48.964Z,29.95
2022-08-11T06:11:52.859Z,29.16
2022-08-11T06:15:56.016Z,28.01
2022-08-11T06:20:06.999Z,27.42
2022-08-11T06:24:14.677Z,26.68
2022-08-11T06:28:22.576Z,26.31
2022-08-11T06:32:36.490Z,25.09
2022-08-11T06:36:51.424Z,24.21
2022-08-11T06:41:15.222Z,23.11
2022-08-11T06:45:35.179Z,23.92
2022-08-11T06:50:01.852Z,23.36
2022-08-11T06:54:05.796Z,23.81
2022-08-11T06:58:39.076Z,23.76
2022-08-11T07:03:00.898Z,23.26
2022-08-11T07:07:30.725Z,23.15
2022-08-11T07:12:21.113Z,25.74
2022-08-11T07:16:28.617Z,30.29
2022-08-11T07:20:50.021Z,32.81
2022-08-11T07:25:19.802Z,35.00
2022-08-11T07:29:22.997Z,36.25
2022-08-11T07:34:05.383Z,36.17
2022-08-11T07:38:11.673Z,37.70
2022-08-11T07:42:16.669Z,37.11
2022-08-11T07:46:41.474Z,37.82
2022-08-11T07:51:03.584Z,37.80
2022-08-11T07:55:10.371Z,38.20
2022-08-11T07:59:59.856Z,38.09
2022-08-11T08:04:12.390Z,38.86
2022-08-11T08:08:34.403Z,38.13
2022-08-11T08:12:55.495Z,37.09
2022-08-11T08:17:17.090Z,36.74
2022-08-11T08:21:19.747Z,36.86
2022-08-11T08:25:27.216Z,37.05
2022-08-11T08:29:52.926Z,36.20
2022-08-11T08:33:55.160Z,35.86
2022-08-11T08:37:59.702Z,37.26
2022-08-11T08:42:07.273Z,36.89
2022-08-11T08:46:11.547Z,36.55
2022-08-11T08:50:19.559Z,36.57
2022-08-11T08:54:29.449Z,36.72
2022-08-11T08:58:35.026Z,36.39
2022-08-11T09:02:37.812Z,36.31
2022-08-11T09:06:42.926Z,36.62
2022-08-11T09:11:13.634Z,36.70
2022-08-11T09:15:19.378Z,35.42
2022-08-11T09:19:23.864Z,34.80
2022-08-11T09:28:12.788Z,35.68
2022-08-11T09:32:19.203Z,34.93
2022-08-11T09:36:40.594Z,33.51
2022-08-11T09:40:45.218Z,34.19
2022-08-11T09:44:55.025Z,34.26
2022-08-11T09:49:02.186Z,33.80
2022-08-11T09:53:37.223Z,34.72
2022-08-11T09:57:47.938Z,32.78
2022-08-11T10:01:57.120Z,33.25
2022-08-11T10:06:20.190Z,32.15
2022-08-11T10:10:37.861Z,32.52
2022-08-11T10:15:06.729Z,30.90
2022-08-11T10:19:10.246Z,31.70
2022-08-11T10:23:32.123Z,31.33
2022-08-11T10:28:17.112Z,32.21
2022-08-11T10:32:16.586Z,32.08
2022-08-11T10:36:20.382Z,31.69
2022-08-11T10:40:23.824Z,32.35
2022-08-11T10:44:26.888Z,32.67
2022-08-11T10:48:31.757Z,32.06
2022-08-11T10:52:54.728Z,32.35
2022-08-11T10:57:16.229Z,32.47
2022-08-11T11:01:22.624Z,32.39
2022-08-11T11:05:30.436Z,32.17
2022-08-11T11:09:40.797Z,31.57
2022-08-11T11:14:06.225Z,32.38
2022-08-11T11:18:19.528Z,32.08
2022-08-11T11:22:38.409Z,31.83
2022-08-11T11:27:02.977Z,31.97
2022-08-11T11:31:22.330Z,31.60
2022-08-11T11:35:31.108Z,31.43
2022-08-11T11:39:35.132Z,30.95
2022-08-11T11:43:37.457Z,30.83
2022-08-11T11:47:40.222Z,31.71
2022-08-11T11:51:43.563Z,31.15
2022-08-11T11:55:47.781Z,31.53
2022-08-11T12:00:10.294Z,30.84
2022-08-11T12:04:15.284Z,30.86
2022-08-11T12:08:17.867Z,30.89
2022-08-11T12:12:39.639Z,31.11
2022-08-11T12:16:44.674Z,30.42
2022-08-11T12:20:47.470Z,31.25
2022-08-11T12:25:21.808Z,31.12
2022-08-11T12:29:27.225Z,31.02
2022-08-11T12:33:29.343Z,30.82
2022-08-11T12:37:44.674Z,30.45
2022-08-11T12:42:06.131Z,30.21
2022-08-11T12:46:16.833Z,30.49
2022-08-11T12:50:37.702Z,29.78
2022-08-11T12:55:13.814Z,29.94
2022-08-11T12:59:35.043Z,29.87
2022-08-11T13:03:57.914Z,29.05
2022-08-11T13:08:04.099Z,28.74
2022-08-11T13:12:25.389Z,28.88
2022-08-11T13:16:57.145Z,28.22
2022-08-11T13:21:00.121Z,28.26
2022-08-11T13:25:04.428Z,29.16
2022-08-11T13:29:06.571Z,28.25
2022-08-11T13:33:10.189Z,28.01
2022-08-11T13:37:14.485Z,28.35
2022-08-11T13:41:36.815Z,28.28
2022-08-11T13:45:39.504Z,27.74
2022-08-11T13:49:44.189Z,28.13
2022-08-11T13:53:46.387Z,27.64
2022-08-11T13:58:19.331Z,28.43
2022-08-11T14:02:29.511Z,27.85
2022-08-11T14:06:34.886Z,27.75
2022-08-11T14:10:39.041Z,27.76
2022-08-11T14:14:43.474Z,28.29
2022-08-11T14:18:48.418Z,27.54
2022-08-11T14:22:52.397Z,28.01
2022-08-11T14:26:55.421Z,27.56
2022-08-11T14:31:01.505Z,28.13
2022-08-11T14:35:04.921Z,27.97
2022-08-11T14:39:12.555Z,27.78
2022-08-11T14:44:14.110Z,27.65
2022-08-11T14:48:01.247Z,27.39
2022-08-11T14:52:31.772Z,27.39
2022-08-11T14:56:37.168Z,27.56
2022-08-11T15:00:41.644Z,27.85
2022-08-11T15:04:43.821Z,27.49
2022-08-11T15:08:55.099Z,27.93
2022-08-11T15:12:57.708Z,27.66
2022-08-11T15:17:08.915Z,27.56
2022-08-11T15:21:29.808Z,28.21
2022-08-11T15:25:34.853Z,27.76
2022-08-11T15:29:57.892Z,27.99
2022-08-11T15:34:22.545Z,28.37
2022-08-11T15:38:26.005Z,27.99
2022-08-11T15:42:48.820Z,27.70
2022-08-11T15:46:55.445Z,27.94
2022-08-11T15:51:00.477Z,27.72
2022-08-11T15:55:08.891Z,27.95
2022-08-11T15:59:42.967Z,27.89
2022-08-11T16:04:12.663Z,28.03
2022-08-11T16:08:17.646Z,27.50
2022-08-11T16:12:39.325Z,27.57
2022-08-11T16:16:42.832Z,27.86
2022-08-11T16:20:46.724Z,28.14
2022-08-11T16:27:01.926Z,27.88
2022-08-11T16:29:14.260Z,27.67
2022-08-11T16:33:22.667Z,27.38
2022-08-11T16:38:00.368Z,27.53
2022-08-11T16:43:05.331Z,27.57
2022-08-11T16:47:01.721Z,27.84
2022-08-11T16:51:07.983Z,27.29
2022-08-11T16:55:10.299Z,27.67
2022-08-11T16:59:31.801Z,27.92
2022-08-11T17:03:55.952Z,27.65
2022-08-11T17:08:21.073Z,27.81
2022-08-11T17:12:48.142Z,27.46
2022-08-11T17:16:51.245Z,27.51
2022-08-11T17:20:53.418Z,27.34
2022-08-11T17:24:56.656Z,27.36
2022-08-11T17:29:00.903Z,27.56
2022-08-11T17:33:21.471Z,27.53
2022-08-11T17:37:24.859Z,28.07
2022-08-11T17:41:45.566Z,28.09
2022-08-11T17:46:08.411Z,28.39
2022-08-11T17:50:17.664Z,28.78
2022-08-11T17:54:41.806Z,29.32
2022-08-11T17:59:04.153Z,29.82
2022-08-11T18:03:25.779Z,30.16
2022-08-11T18:07:46.825Z,29.95
2022-08-11T18:12:11.810Z,30.42
2022-08-11T18:16:33.708Z,30.68
2022-08-11T18:20:55.490Z,30.78
2022-08-11T18:25:22.493Z,31.07
2022-08-11T18:29:43.470Z,31.18
2022-08-11T18:34:11.500Z,31.71
2022-08-11T18:38:34.793Z,31.89
2022-08-11T18:43:00.320Z,32.23
2022-08-11T18:47:27.432Z,32.35
2022-08-11T18:51:51.784Z,32.68
2022-08-11T18:56:12.677Z,32.88
2022-08-11T19:00:33.664Z,33.30
2022-08-11T19:04:55.470Z,33.27
2022-08-11T19:09:18.451Z,33.35
2022-08-11T19:13:43.561Z,33.27
2022-08-11T19:18:07.058Z,33.48
2022-08-11T19:22:29.307Z,33.66
2022-08-11T19:26:52.509Z,33.75
2022-08-11T19:31:14.885Z,33.55
2022-08-11T19:35:36.357Z,33.67
2022-08-11T19:39:59.509Z,34.24
2022-08-11T19:44:21.185Z,34.46
2022-08-11T19:48:44.764Z,34.57
2022-08-11T19:53:17.531Z,34.78
2022-08-11T19:57:40.653Z,34.90
2022-08-11T20:02:13.593Z,35.34
2022-08-11T20:06:37.310Z,35.41
2022-08-11T20:10:59.313Z,35.92
2022-08-11T20:15:21.837Z,36.12
2022-08-11T20:19:56.495Z,36.77
2022-08-11T20:24:20.223Z,37.29
2022-08-11T20:28:40.791Z,37.48
2022-08-11T20:33:03.193Z,37.64
2022-08-11T20:37:24.950Z,37.44
2022-08-11T20:41:58.950Z,36.95
2022-08-11T20:46:22.477Z,36.30
2022-08-11T20:50:45.674Z,36.10
2022-08-11T20:55:10.877Z,36.04
2022-08-11T20:59:49.443Z,35.95
2022-08-11T21:04:17.615Z,35.77
2022-08-11T21:08:45.201Z,35.52
2022-08-11T21:13:24.301Z,35.50
2022-08-11T21:18:00.712Z,35.41
2022-08-11T21:22:31.724Z,35.52
2022-08-11T21:26:59.201Z,35.14
2022-08-11T21:31:24.650Z,35.41
2022-08-11T21:35:45.633Z,35.73
2022-08-11T21:40:09.960Z,35.92
2022-08-11T21:44:32.997Z,36.24
2022-08-11T21:48:57.750Z,37.14
2022-08-11T21:53:19.406Z,38.06
2022-08-11T21:57:47.653Z,37.78
2022-08-11T22:02:12.767Z,38.08
2022-08-11T22:06:35.657Z,38.64
2022-08-11T22:10:56.918Z,39.09
2022-08-11T22:15:17.722Z,39.75
2022-08-11T22:19:40.381Z,40.38
2022-08-11T22:24:03.645Z,40.79
2022-08-11T22:28:29.012Z,41.11
2022-08-11T22:32:50.822Z,41.43
2022-08-11T22:37:27.023Z,41.81
2022-08-11T22:41:48.319Z,42.42
2022-08-11T22:46:09.084Z,42.80
2022-08-11T22:50:32.473Z,43.11
2022-08-11T22:54:53.876Z,43.63
2022-08-11T22:59:15.612Z,44.13
2022-08-11T23:03:38.612Z,44.47
2022-08-11T23:07:59.954Z,44.62
2022-08-11T23:12:21.604Z,45.25
2022-08-11T23:16:43.010Z,45.35
2022-08-11T23:21:04.433Z,45.91
2022-08-11T23:25:25.772Z,46.25
2022-08-11T23:29:48.046Z,46.59
2022-08-11T23:34:37.028Z,46.69
2022-08-11T23:38:55.701Z,46.80
2022-08-11T23:43:16.704Z,46.97
2022-08-11T23:47:50.327Z,47.47
2022-08-11T23:52:12.222Z,47.73
2022-08-11T23:56:33.713Z,48.18
